Time;durP1;ratioP1;P1;durP2;ratioP2;P2;SDS_P1;SDS_P2;PMS_P1;PMS_P2;Temp;Humidity;BMP_temperature;BMP_pressure;BME280_temperature;BME280_humidity;BME280_pressure;Samples;Min_cycle;Max_cycle;Signal;HPM_P1;HPM_P2
2023/04/30 00:01:05;;;;;;;;;;;22.50;55.60;;;;;;1591420;73;761;-66
2023/04/30 00:03:07;;;;;;;;;;;22.60;56.00;;;;;;1589448;73;741;-66
2023/04/30 00:05:09;;;;;;;;;;;22.50;55.90;;;;;;1598536;73;1392;-67
2023/04/30 00:07:11;;;;;;;;;;;22.50;55.90;;;;;;1585605;73;789;-67
2023/04/30 00:09:13;;;;;;;;;;;22.50;55.90;;;;;;1592267;73;766;-66
2023/04/30 00:11:15;;;;;;;;;;;22.50;55.90;;;;;;1588879;73;758;-65
2023/04/30 00:13:17;;;;;;;;;;;22.50;56.00;;;;;;1595572;73;672;-66
2023/04/30 00:15:19;;;;;;;;;;;22.50;56.00;;;;;;1591349;73;1226;-65
2023/04/30 00:17:21;;;;;;;;;;;22.50;55.90;;;;;;1583460;73;681;-65
2023/04/30 00:19:23;;;;;;;;;;;22.50;55.80;;;;;;1593069;73;1928;-65
2023/04/30 00:21:25;;;;;;;;;;;22.50;55.80;;;;;;1600817;73;788;-66
2023/04/30 00:23:27;;;;;;;;;;;22.50;55.80;;;;;;1591717;73;839;-65
2023/04/30 00:25:29;;;;;;;;;;;22.40;55.80;;;;;;1599204;74;1185;-66
2023/04/30 00:27:31;;;;;;;;;;;22.40;55.70;;;;;;1597408;74;742;-66
2023/04/30 00:29:32;;;;;;;;;;;22.40;55.70;;;;;;1587016;73;795;-65
2023/04/30 00:31:34;;;;;;;;;;;22.50;55.80;;;;;;1583701;73;768;-65
2023/04/30 00:33:36;;;;;;;;;;;22.50;55.70;;;;;;1589993;73;1417;-65
2023/04/30 00:35:38;;;;;;;;;;;22.50;55.70;;;;;;1594442;73;1194;-65
2023/04/30 00:37:40;;;;;;;;;;;22.50;55.80;;;;;;1591658;73;786;-66
2023/04/30 00:39:42;;;;;;;;;;;22.40;55.60;;;;;;1599566;73;1919;-65
2023/04/30 00:41:44;;;;;;;;;;;22.50;55.70;;;;;;1597373;74;792;-65
2023/04/30 00:43:46;;;;;;;;;;;22.50;55.80;;;;;;1585636;74;758;-65
2023/04/30 00:45:48;;;;;;;;;;;22.40;55.60;;;;;;1602353;73;1155;-65
2023/04/30 00:47:50;;;;;;;;;;;22.50;55.70;;;;;;1598369;73;1458;-63
2023/04/30 00:49:52;;;;;;;;;;;22.40;56.00;;;;;;1585531;73;662;-65
2023/04/30 00:51:54;;;;;;;;;;;22.50;56.10;;;;;;1585299;73;699;-63
2023/04/30 00:53:56;;;;;;;;;;;22.40;56.10;;;;;;1590930;73;810;-64
2023/04/30 00:55:58;;;;;;;;;;;22.40;55.90;;;;;;1581104;73;1172;-63
2023/04/30 00:58:00;;;;;;;;;;;22.40;55.90;;;;;;1580877;73;766;-64
2023/04/30 01:00:02;;;;;;;;;;;22.40;55.90;;;;;;1598530;73;755;-64
2023/04/30 01:02:04;;;;;;;;;;;22.40;55.80;;;;;;1590877;74;1511;-64
2023/04/30 01:04:06;;;;;;;;;;;22.40;55.60;;;;;;1601982;73;806;-64
2023/04/30 01:06:08;;;;;;;;;;;22.30;55.90;;;;;;1595999;74;1238;-64
2023/04/30 01:08:10;;;;;;;;;;;22.40;55.70;;;;;;1594224;73;796;-64
2023/04/30 01:10:12;;;;;;;;;;;22.40;55.80;;;;;;1593685;73;792;-63
2023/04/30 01:12:27;;;;;;;;;;;22.40;55.70;;;;;;1588545;73;788;-63
2023/04/30 01:14:47;;;;;;;;;;;22.30;55.80;;;;;;1590411;73;745;-64
2023/04/30 01:17:00;;;;;;;;;;;22.40;55.90;;;;;;1579947;73;1083;-64
2023/04/30 01:19:03;;;;;;;;;;;22.40;55.90;;;;;;1596896;73;1920;-64
2023/04/30 01:21:05;;;;;;;;;;;22.40;55.90;;;;;;1595024;73;1485;-65
2023/04/30 01:23:24;;;;;;;;;;;22.30;56.00;;;;;;1597556;73;792;-64
2023/04/30 01:25:35;;;;;;;;;;;22.40;56.00;;;;;;1582169;73;1219;-63
2023/04/30 01:27:56;;;;;;;;;;;22.40;56.00;;;;;;1599416;73;794;-63
2023/04/30 01:29:58;;;;;;;;;;;22.30;56.10;;;;;;1589031;73;1596;-64
2023/04/30 01:32:01;;;;;;;;;;;22.30;56.10;;;;;;1584821;73;797;-65
2023/04/30 01:34:03;;;;;;;;;;;22.30;56.10;;;;;;1545654;74;800;-64
2023/04/30 01:36:23;;;;;;;;;;;22.30;56.00;;;;;;1592403;73;1167;-65
2023/04/30 01:38:26;;;;;;;;;;;22.30;56.00;;;;;;1588418;73;1941;-64
2023/04/30 01:40:45;;;;;;;;;;;22.30;56.30;;;;;;1594632;73;1178;-65
2023/04/30 01:43:04;;;;;;;;;;;22.30;56.20;;;;;;1510930;77;1025;-65
2023/04/30 01:45:08;;;;;;;;;;;22.30;56.20;;;;;;1547213;73;1169;-64
2023/04/30 01:47:14;;;;;;;;;;;22.30;56.20;;;;;;1593459;73;802;-64
2023/04/30 01:49:29;;;;;;;;;;;22.30;56.20;;;;;;1596526;73;1857;-66
2023/04/30 01:51:33;;;;;;;;;;;22.40;56.30;;;;;;1596732;73;624;-65
2023/04/30 01:53:40;;;;;;;;;;;22.40;56.40;;;;;;1587609;74;1491;-66
2023/04/30 01:55:46;;;;;;;;;;;22.40;56.40;;;;;;1587551;73;1227;-65
2023/04/30 01:57:53;;;;;;;;;;;22.40;56.50;;;;;;1594153;73;1392;-65
2023/04/30 01:59:55;;;;;;;;;;;22.30;56.50;;;;;;1586180;73;1939;-66
2023/04/30 02:01:57;;;;;;;;;;;22.30;56.20;;;;;;1583553;74;798;-64
2023/04/30 02:03:59;;;;;;;;;;;22.30;56.40;;;;;;1595100;73;764;-64
2023/04/30 02:06:00;;;;;;;;;;;22.40;56.50;;;;;;1588645;73;1158;-64
2023/04/30 02:08:03;;;;;;;;;;;22.40;56.50;;;;;;1597295;73;765;-64
2023/04/30 02:10:05;;;;;;;;;;;22.40;56.40;;;;;;1595080;73;746;-64
2023/04/30 02:12:07;;;;;;;;;;;22.40;56.20;;;;;;1591458;73;1428;-63
2023/04/30 02:14:09;;;;;;;;;;;22.40;56.30;;;;;;1599180;73;782;-64
2023/04/30 02:16:11;;;;;;;;;;;22.30;56.20;;;;;;1600174;73;1318;-63
2023/04/30 02:18:13;;;;;;;;;;;22.40;56.30;;;;;;1589199;73;772;-64
2023/04/30 02:20:15;;;;;;;;;;;22.40;56.10;;;;;;1592876;73;1927;-63
2023/04/30 02:22:16;;;;;;;;;;;22.40;56.20;;;;;;1593511;73;778;-63
2023/04/30 02:24:18;;;;;;;;;;;22.40;56.30;;;;;;1595256;73;737;-63
2023/04/30 02:26:20;;;;;;;;;;;22.40;56.30;;;;;;1594961;73;1479;-63
2023/04/30 02:28:22;;;;;;;;;;;22.40;56.10;;;;;;1595110;73;774;-63
2023/04/30 02:30:24;;;;;;;;;;;22.30;56.30;;;;;;1607652;73;783;-63
2023/04/30 02:32:26;;;;;;;;;;;22.40;56.20;;;;;;1600718;73;870;-67
2023/04/30 02:34:28;;;;;;;;;;;22.30;56.30;;;;;;1596387;73;771;-66
2023/04/30 02:36:32;;;;;;;;;;;22.40;56.20;;;;;;1595259;73;1163;-65
2023/04/30 02:38:33;;;;;;;;;;;22.30;56.20;;;;;;1594827;73;1609;-67
2023/04/30 02:40:35;;;;;;;;;;;22.30;56.30;;;;;;1590087;73;1930;-64
2023/04/30 02:42:37;;;;;;;;;;;22.40;56.50;;;;;;1581869;73;679;-65
2023/04/30 02:44:39;;;;;;;;;;;22.40;56.50;;;;;;1590490;73;792;-65
2023/04/30 02:46:41;;;;;;;;;;;22.30;56.30;;;;;;1589961;73;1194;-64
2023/04/30 02:48:43;;;;;;;;;;;22.30;56.20;;;;;;1578159;73;744;-65
2023/04/30 02:50:44;;;;;;;;;;;22.30;56.10;;;;;;1595848;73;774;-64
2023/04/30 02:52:46;;;;;;;;;;;22.30;56.10;;;;;;1581665;73;746;-64
2023/04/30 02:54:48;;;;;;;;;;;22.30;56.00;;;;;;1586212;73;1449;-65
2023/04/30 02:56:50;;;;;;;;;;;22.30;56.10;;;;;;1582431;73;1140;-64
2023/04/30 02:58:52;;;;;;;;;;;22.30;56.10;;;;;;1594382;73;1945;-65
2023/04/30 03:00:54;;;;;;;;;;;22.40;56.10;;;;;;1581644;73;650;-64
2023/04/30 03:02:56;;;;;;;;;;;22.30;56.20;;;;;;1591509;73;802;-65
2023/04/30 03:04:58;;;;;;;;;;;22.30;56.20;;;;;;1587083;73;1165;-65
2023/04/30 03:07:00;;;;;;;;;;;22.30;56.50;;;;;;1585453;73;785;-65
2023/04/30 03:09:02;;;;;;;;;;;22.20;56.20;;;;;;1593578;73;1438;-66
2023/04/30 03:11:04;;;;;;;;;;;22.30;56.30;;;;;;1596614;73;771;-65
2023/04/30 03:13:06;;;;;;;;;;;22.40;56.10;;;;;;1593809;73;713;-65
2023/04/30 03:15:08;;;;;;;;;;;22.40;56.00;;;;;;1597439;73;1288;-65
2023/04/30 03:17:10;;;;;;;;;;;22.40;55.90;;;;;;1589173;73;767;-63
2023/04/30 03:19:12;;;;;;;;;;;22.50;56.00;;;;;;1596206;73;1922;-66
2023/04/30 03:21:14;;;;;;;;;;;22.40;55.90;;;;;;1594685;73;636;-65
2023/04/30 03:23:16;;;;;;;;;;;22.40;55.70;;;;;;1591746;73;1523;-65
2023/04/30 03:25:17;;;;;;;;;;;22.50;56.00;;;;;;1600030;73;1162;-66
2023/04/30 03:27:19;;;;;;;;;;;22.50;55.90;;;;;;1589137;73;761;-65
2023/04/30 03:29:21;;;;;;;;;;;22.40;55.70;;;;;;1583747;73;756;-65
2023/04/30 03:31:23;;;;;;;;;;;22.40;55.80;;;;;;1590840;73;768;-65
2023/04/30 03:33:26;;;;;;;;;;;22.40;55.70;;;;;;1595228;73;758;-65
2023/04/30 03:35:28;;;;;;;;;;;22.40;55.70;;;;;;1594244;73;1168;-65
2023/04/30 03:37:29;;;;;;;;;;;22.40;55.80;;;;;;1601929;73;795;-65
2023/04/30 03:39:31;;;;;;;;;;;22.40;55.90;;;;;;1586822;73;1943;-65
2023/04/30 03:41:33;;;;;;;;;;;22.40;56.00;;;;;;1588710;73;752;-66
2023/04/30 03:43:35;;;;;;;;;;;22.30;56.10;;;;;;1597026;73;779;-66
2023/04/30 03:45:37;;;;;;;;;;;22.40;55.90;;;;;;1588656;73;1182;-65
2023/04/30 03:47:39;;;;;;;;;;;22.40;55.70;;;;;;1591020;73;749;-65
2023/04/30 03:49:41;;;;;;;;;;;22.40;55.80;;;;;;1594949;73;1403;-65
2023/04/30 03:51:43;;;;;;;;;;;22.40;55.80;;;;;;1588952;73;766;-65
2023/04/30 03:53:45;;;;;;;;;;;22.30;55.80;;;;;;1588963;73;697;-66
2023/04/30 03:55:48;;;;;;;;;;;22.40;55.90;;;;;;1585092;73;1166;-66
2023/04/30 03:57:50;;;;;;;;;;;22.30;55.80;;;;;;1597959;73;741;-65
2023/04/30 03:59:52;;;;;;;;;;;22.40;55.90;;;;;;1590582;73;1943;-65
2023/04/30 04:01:54;;;;;;;;;;;22.20;55.70;;;;;;1597785;73;791;-65
2023/04/30 04:03:56;;;;;;;;;;;22.40;56.00;;;;;;1594337;73;1383;-66
2023/04/30 04:05:58;;;;;;;;;;;22.30;56.00;;;;;;1586512;73;1170;-65
2023/04/30 04:08:00;;;;;;;;;;;22.40;56.00;;;;;;1601232;73;740;-64
2023/04/30 04:10:02;;;;;;;;;;;22.30;56.20;;;;;;1581087;73;786;-64
2023/04/30 04:12:04;;;;;;;;;;;22.30;56.00;;;;;;1591568;73;759;-65
2023/04/30 04:14:06;;;;;;;;;;;22.40;55.90;;;;;;1589585;73;688;-64
2023/04/30 04:16:08;;;;;;;;;;;22.40;55.90;;;;;;1593196;73;1221;-64
2023/04/30 04:18:10;;;;;;;;;;;22.40;55.90;;;;;;1594059;73;1395;-64
2023/04/30 04:20:12;;;;;;;;;;;22.40;55.70;;;;;;1595787;73;1947;-64
2023/04/30 04:22:14;;;;;;;;;;;22.40;55.60;;;;;;1584378;73;775;-65
2023/04/30 04:24:16;;;;;;;;;;;22.30;55.80;;;;;;1586936;73;729;-65
2023/04/30 04:26:20;;;;;;;;;;;22.40;55.70;;;;;;1600116;73;1168;-66
2023/04/30 04:28:21;;;;;;;;;;;22.40;55.70;;;;;;1588642;73;1648;-65
2023/04/30 04:30:23;;;;;;;;;;;22.40;55.70;;;;;;1593419;73;756;-65
2023/04/30 04:32:26;;;;;;;;;;;22.40;55.70;;;;;;1589183;73;1434;-65
2023/04/30 04:34:28;;;;;;;;;;;22.40;55.70;;;;;;1599733;73;763;-65
2023/04/30 04:36:29;;;;;;;;;;;22.30;55.90;;;;;;1600212;73;1141;-65
2023/04/30 04:38:31;;;;;;;;;;;22.40;55.80;;;;;;1584974;73;771;-65
2023/04/30 04:40:34;;;;;;;;;;;22.30;55.90;;;;;;1594431;73;1950;-65
2023/04/30 04:42:37;;;;;;;;;;;22.40;55.80;;;;;;1597617;74;761;-65
2023/04/30 04:44:40;;;;;;;;;;;22.40;55.70;;;;;;1589609;73;755;-65
2023/04/30 04:46:43;;;;;;;;;;;22.30;55.80;;;;;;1598965;73;1441;-65
2023/04/30 04:48:45;;;;;;;;;;;22.40;55.80;;;;;;1596745;73;810;-65
2023/04/30 04:50:47;;;;;;;;;;;22.40;55.70;;;;;;1576693;73;739;-65
2023/04/30 04:52:49;;;;;;;;;;;22.40;55.70;;;;;;1593312;73;810;-65
2023/04/30 04:54:51;;;;;;;;;;;22.40;55.60;;;;;;1583232;73;777;-64
2023/04/30 04:56:52;;;;;;;;;;;22.40;55.60;;;;;;1599899;73;1192;-64
2023/04/30 04:58:55;;;;;;;;;;;22.30;55.60;;;;;;1593564;73;652;-64
2023/04/30 05:00:56;;;;;;;;;;;22.40;55.60;;;;;;1593430;73;1937;-63
2023/04/30 05:02:58;;;;;;;;;;;22.30;55.60;;;;;;1596798;73;759;-64
2023/04/30 05:05:00;;;;;;;;;;;22.30;55.60;;;;;;1594681;73;1179;-63
2023/04/30 05:07:02;;;;;;;;;;;22.40;55.50;;;;;;1586078;73;752;-63
2023/04/30 05:09:07;;;;;;;;;;;22.40;55.50;;;;;;1598029;73;761;-64
2023/04/30 05:11:08;;;;;;;;;;;22.40;55.70;;;;;;1589313;73;1578;-64
2023/04/30 05:13:10;;;;;;;;;;;22.40;55.70;;;;;;1585989;73;771;-65
2023/04/30 05:15:11;;;;;;;;;;;22.40;55.70;;;;;;1591993;73;1444;-65
2023/04/30 05:17:13;;;;;;;;;;;22.40;55.70;;;;;;1584262;73;740;-65
2023/04/30 05:19:15;;;;;;;;;;;22.30;55.70;;;;;;1593790;73;717;-65
2023/04/30 05:21:17;;;;;;;;;;;22.50;55.90;;;;;;1589227;73;1930;-64
2023/04/30 05:23:19;;;;;;;;;;;22.40;55.60;;;;;;1593167;73;768;-63
2023/04/30 05:25:21;;;;;;;;;;;22.40;55.70;;;;;;1595414;73;1188;-64
2023/04/30 05:27:23;;;;;;;;;;;22.40;55.70;;;;;;1600150;73;763;-66
2023/04/30 05:29:25;;;;;;;;;;;22.30;55.60;;;;;;1593286;73;1451;-65
2023/04/30 05:31:26;;;;;;;;;;;22.40;55.60;;;;;;1609835;73;775;-64
2023/04/30 05:33:28;;;;;;;;;;;22.30;56.60;;;;;;1596056;73;765;-64
2023/04/30 05:35:30;;;;;;;;;;;22.30;56.40;;;;;;1593674;73;1146;-64
2023/04/30 05:37:32;;;;;;;;;;;22.30;56.60;;;;;;1590988;74;600;-63
2023/04/30 05:39:34;;;;;;;;;;;22.30;56.70;;;;;;1587069;73;745;-63
2023/04/30 05:41:36;;;;;;;;;;;22.20;56.60;;;;;;1597033;73;1934;-63
2023/04/30 05:43:38;;;;;;;;;;;22.30;56.50;;;;;;1593128;73;1417;-65
2023/04/30 05:45:39;;;;;;;;;;;22.30;56.80;;;;;;1597169;73;1163;-67
2023/04/30 05:47:41;;;;;;;;;;;22.20;57.00;;;;;;1585936;73;760;-69
2023/04/30 05:49:43;;;;;;;;;;;22.20;56.90;;;;;;1604051;73;806;-67
2023/04/30 05:51:45;;;;;;;;;;;22.20;56.70;;;;;;1593786;73;736;-69
2023/04/30 05:53:47;;;;;;;;;;;22.30;56.70;;;;;;1583599;74;775;-69
2023/04/30 05:55:49;;;;;;;;;;;22.20;56.70;;;;;;1586355;74;1170;-63
2023/04/30 05:57:51;;;;;;;;;;;22.20;56.80;;;;;;1591114;73;1474;-64
2023/04/30 05:59:53;;;;;;;;;;;22.20;56.70;;;;;;1593287;73;1931;-64
2023/04/30 06:01:55;;;;;;;;;;;22.20;56.70;;;;;;1582105;73;775;-65
2023/04/30 06:04:00;;;;;;;;;;;22.30;56.60;;;;;;1602399;73;787;-67
2023/04/30 06:06:00;;;;;;;;;;;22.40;56.60;;;;;;1588465;74;1792;-67
2023/04/30 06:08:02;;;;;;;;;;;22.40;56.60;;;;;;1586031;73;759;-67
2023/04/30 06:10:04;;;;;;;;;;;22.30;56.80;;;;;;1595820;73;779;-66
2023/04/30 06:12:06;;;;;;;;;;;22.30;56.60;;;;;;1601021;73;1533;-67
2023/04/30 06:14:08;;;;;;;;;;;22.30;56.50;;;;;;1586197;73;760;-68
2023/04/30 06:16:10;;;;;;;;;;;22.30;56.60;;;;;;1563652;74;1208;-66
2023/04/30 06:18:13;;;;;;;;;;;22.20;56.80;;;;;;1558537;74;755;-64
2023/04/30 06:20:14;;;;;;;;;;;22.30;57.10;;;;;;1559483;74;1928;-65
2023/04/30 06:22:16;;;;;;;;;;;22.30;56.70;;;;;;1566139;74;1113;-65
2023/04/30 06:24:18;;;;;;;;;;;22.30;55.80;;;;;;1554454;74;1371;-65
2023/04/30 06:26:20;;;;;;;;;;;22.20;55.20;;;;;;1556093;74;1359;-65
2023/04/30 06:28:22;;;;;;;;;;;22.20;54.50;;;;;;1551345;74;1379;-65
2023/04/30 06:30:24;;;;;;;;;;;22.20;53.70;;;;;;1567012;74;1380;-65
2023/04/30 06:32:26;;;;;;;;;;;22.30;53.60;;;;;;1561426;74;1346;-66
2023/04/30 06:34:28;;;;;;;;;;;22.40;53.00;;;;;;1591607;73;1359;-65
2023/04/30 06:36:30;;;;;;;;;;;22.40;52.70;;;;;;1596310;73;1383;-65
2023/04/30 06:38:32;;;;;;;;;;;22.50;52.10;;;;;;1585907;73;1405;-65
2023/04/30 06:40:34;;;;;;;;;;;22.50;50.90;;;;;;1589856;73;1936;-65
2023/04/30 06:42:36;;;;;;;;;;;22.60;52.10;;;;;;1594816;73;1361;-65
2023/04/30 06:44:38;;;;;;;;;;;22.60;51.40;;;;;;1590482;73;1385;-64
2023/04/30 06:46:40;;;;;;;;;;;22.70;51.60;;;;;;1593015;73;1358;-65
2023/04/30 06:48:42;;;;;;;;;;;22.70;51.60;;;;;;1581644;73;1369;-65
2023/04/30 06:50:43;;;;;;;;;;;22.70;50.70;;;;;;1588351;73;1355;-65
2023/04/30 06:52:45;;;;;;;;;;;22.70;50.60;;;;;;1594339;72;1392;-66
2023/04/30 06:54:47;;;;;;;;;;;22.70;50.00;;;;;;1583297;73;1065;-65
2023/04/30 06:56:49;;;;;;;;;;;22.60;48.80;;;;;;1590185;73;1736;-65
2023/04/30 06:58:51;;;;;;;;;;;22.70;49.50;;;;;;1592281;73;1365;-65
2023/04/30 07:00:53;;;;;;;;;;;22.60;49.20;;;;;;1594145;73;1934;-65
2023/04/30 07:02:56;;;;;;;;;;;22.60;49.10;;;;;;1582672;73;1356;-66
2023/04/30 07:04:57;;;;;;;;;;;22.60;49.00;;;;;;1592750;73;1377;-65
2023/04/30 07:07:00;;;;;;;;;;;22.50;48.40;;;;;;1589269;73;1379;-65
2023/04/30 07:09:02;;;;;;;;;;;22.40;48.50;;;;;;1595775;73;1343;-65
2023/04/30 07:11:04;;;;;;;;;;;22.50;48.70;;;;;;1599692;73;1357;-65
2023/04/30 07:13:07;;;;;;;;;;;22.50;48.40;;;;;;1601117;73;1384;-65
2023/04/30 07:15:09;;;;;;;;;;;22.50;48.30;;;;;;1598381;73;1377;-64
2023/04/30 07:17:10;;;;;;;;;;;22.60;48.10;;;;;;1587791;73;1357;-65
2023/04/30 07:19:12;;;;;;;;;;;22.70;48.20;;;;;;1596750;73;1361;-64
2023/04/30 07:21:15;;;;;;;;;;;22.80;47.80;;;;;;1592682;73;1946;-66
2023/04/30 07:23:16;;;;;;;;;;;22.70;48.00;;;;;;1592738;73;1338;-65
2023/04/30 07:25:18;;;;;;;;;;;22.70;47.80;;;;;;1590526;73;1367;-65
2023/04/30 07:27:20;;;;;;;;;;;22.70;47.20;;;;;;1582639;73;1354;-65
2023/04/30 07:29:22;;;;;;;;;;;22.80;47.10;;;;;;1590353;73;1107;-65
2023/04/30 07:31:24;;;;;;;;;;;22.70;47.40;;;;;;1591936;73;1328;-65
2023/04/30 07:33:27;;;;;;;;;;;22.60;47.20;;;;;;1586743;73;1268;-65
2023/04/30 07:35:29;;;;;;;;;;;22.60;47.00;;;;;;1585592;73;1421;-65
2023/04/30 07:37:30;;;;;;;;;;;22.60;46.70;;;;;;1597493;73;1364;-65
2023/04/30 07:39:32;;;;;;;;;;;22.70;46.80;;;;;;1593534;73;1335;-65
2023/04/30 07:41:34;;;;;;;;;;;22.70;46.70;;;;;;1590016;73;1934;-65
2023/04/30 07:43:36;;;;;;;;;;;22.70;46.90;;;;;;1599360;73;1370;-65
2023/04/30 07:45:38;;;;;;;;;;;22.60;46.60;;;;;;1582746;73;1366;-65
2023/04/30 07:47:40;;;;;;;;;;;22.60;46.40;;;;;;1590113;73;1369;-65
2023/04/30 07:49:42;;;;;;;;;;;22.60;46.40;;;;;;1594386;73;1471;-65
2023/04/30 07:51:43;;;;;;;;;;;22.60;46.70;;;;;;1601430;73;1364;-64
2023/04/30 07:53:45;;;;;;;;;;;22.70;46.60;;;;;;1594709;73;1368;-65
2023/04/30 07:55:47;;;;;;;;;;;22.60;46.50;;;;;;1592180;73;1373;-65
2023/04/30 07:57:49;;;;;;;;;;;22.70;45.90;;;;;;1587354;73;1361;-65
2023/04/30 07:59:51;;;;;;;;;;;22.60;46.40;;;;;;1600841;73;1365;-65
2023/04/30 08:01:53;;;;;;;;;;;22.70;46.30;;;;;;1582865;73;1938;-65
2023/04/30 08:03:55;;;;;;;;;;;22.70;46.60;;;;;;1596254;73;1499;-65
2023/04/30 08:05:57;;;;;;;;;;;22.60;46.20;;;;;;1597721;73;1371;-66
2023/04/30 08:07:59;;;;;;;;;;;22.70;46.40;;;;;;1587236;73;1367;-65
2023/04/30 08:10:01;;;;;;;;;;;22.70;46.50;;;;;;1584597;73;1386;-65
2023/04/30 08:12:03;;;;;;;;;;;22.60;46.30;;;;;;1593879;73;1382;-66
2023/04/30 08:14:05;;;;;;;;;;;22.60;46.00;;;;;;1595691;73;1354;-65
2023/04/30 08:16:07;;;;;;;;;;;22.60;46.10;;;;;;1587168;73;1295;-65
2023/04/30 08:18:09;;;;;;;;;;;22.60;46.10;;;;;;1590756;73;1546;-66
2023/04/30 08:20:11;;;;;;;;;;;22.50;46.10;;;;;;1594955;73;1184;-65
2023/04/30 08:22:13;;;;;;;;;;;22.60;46.30;;;;;;1596279;73;1937;-65
2023/04/30 08:24:15;;;;;;;;;;;22.60;45.80;;;;;;1594242;73;1421;-65
2023/04/30 08:26:17;;;;;;;;;;;22.50;45.90;;;;;;1596468;73;1382;-65
2023/04/30 08:28:19;;;;;;;;;;;22.60;45.90;;;;;;1588237;73;1136;-65
2023/04/30 08:30:21;;;;;;;;;;;22.60;46.20;;;;;;1585669;73;1073;-65
2023/04/30 08:32:22;;;;;;;;;;;22.50;46.00;;;;;;1599128;73;1452;-65
2023/04/30 08:34:24;;;;;;;;;;;22.50;45.90;;;;;;1590952;73;1381;-65
2023/04/30 08:36:26;;;;;;;;;;;22.50;45.80;;;;;;1589101;73;1365;-65
2023/04/30 08:38:28;;;;;;;;;;;22.40;45.70;;;;;;1588717;73;1371;-65
2023/04/30 08:40:30;;;;;;;;;;;22.30;45.70;;;;;;1596150;73;1347;-65
2023/04/30 08:42:33;;;;;;;;;;;22.40;45.70;;;;;;1587881;73;1931;-65
2023/04/30 08:44:36;;;;;;;;;;;22.50;45.70;;;;;;1581875;73;1340;-65
2023/04/30 08:46:38;;;;;;;;;;;22.50;45.50;;;;;;1587608;73;1563;-65
2023/04/30 08:48:40;;;;;;;;;;;22.40;45.70;;;;;;1594882;73;1365;-66
2023/04/30 08:50:42;;;;;;;;;;;22.40;45.60;;;;;;1590562;73;1380;-65
2023/04/30 08:52:44;;;;;;;;;;;22.40;45.50;;;;;;1586355;73;1360;-65
2023/04/30 08:54:46;;;;;;;;;;;22.50;45.70;;;;;;1594717;73;1360;-65
2023/04/30 08:56:48;;;;;;;;;;;22.40;45.40;;;;;;1595793;73;1347;-65
2023/04/30 08:58:50;;;;;;;;;;;22.40;45.50;;;;;;1587046;73;1369;-65
2023/04/30 09:00:52;;;;;;;;;;;22.30;45.50;;;;;;1595731;73;1432;-66
2023/04/30 09:02:54;;;;;;;;;;;22.30;45.50;;;;;;1586408;73;1942;-65
2023/04/30 09:04:56;;;;;;;;;;;22.40;45.20;;;;;;1592432;73;1437;-65
2023/04/30 09:07:03;;;;;;;;;;;22.30;45.40;;;;;;1589544;73;1383;-65
2023/04/30 09:09:14;;;;;;;;;;;22.30;45.60;;;;;;1596526;73;1591;-65
2023/04/30 09:11:25;;;;;;;;;;;22.40;44.10;;;;;;1585674;73;1335;-65
2023/04/30 09:13:29;;;;;;;;;;;22.30;45.50;;;;;;1591458;73;1382;-65
2023/04/30 09:15:31;;;;;;;;;;;22.20;45.00;;;;;;1581638;73;1777;-65
2023/04/30 09:17:33;;;;;;;;;;;22.20;45.30;;;;;;1586175;73;1374;-66
2023/04/30 09:19:35;;;;;;;;;;;22.30;45.70;;;;;;1588224;73;1376;-66
2023/04/30 09:21:37;;;;;;;;;;;22.30;45.20;;;;;;1594599;73;1941;-65
2023/04/30 09:23:40;;;;;;;;;;;22.20;44.20;;;;;;1590440;73;1369;-65
2023/04/30 09:25:42;;;;;;;;;;;22.10;45.00;;;;;;1594379;73;1950;-65
2023/04/30 09:27:44;;;;;;;;;;;22.10;45.20;;;;;;1588677;73;1371;-65
2023/04/30 09:29:46;;;;;;;;;;;22.10;45.40;;;;;;1586460;73;1247;-65
2023/04/30 09:31:48;;;;;;;;;;;22.10;45.20;;;;;;1595206;73;1373;-65
2023/04/30 09:33:50;;;;;;;;;;;22.20;45.00;;;;;;1579986;73;1355;-65
2023/04/30 09:35:52;;;;;;;;;;;22.10;44.70;;;;;;1595178;73;1364;-65
2023/04/30 09:37:54;;;;;;;;;;;22.10;45.20;;;;;;1595567;73;1376;-65
2023/04/30 09:39:56;;;;;;;;;;;22.10;45.30;;;;;;1601230;73;1376;-64
2023/04/30 09:42:08;;;;;;;;;;;22.10;45.00;;;;;;1600288;73;1950;-66
2023/04/30 09:44:28;;;;;;;;;;;22.10;44.90;;;;;;1595115;73;1138;-66
2023/04/30 09:46:33;;;;;;;;;;;22.10;45.20;;;;;;1593558;73;1379;-65
2023/04/30 09:48:35;;;;;;;;;;;22.00;44.50;;;;;;1584014;73;1288;-65
2023/04/30 09:50:38;;;;;;;;;;;22.00;45.10;;;;;;1594312;73;1166;-66
2023/04/30 09:52:40;;;;;;;;;;;22.10;45.00;;;;;;1591812;73;1092;-65
2023/04/30 09:54:43;;;;;;;;;;;22.10;44.80;;;;;;1596149;73;1387;-65
2023/04/30 09:56:45;;;;;;;;;;;22.10;45.00;;;;;;1598684;73;1502;-65
2023/04/30 09:58:47;;;;;;;;;;;22.10;44.70;;;;;;1588547;73;1077;-65
2023/04/30 10:00:50;;;;;;;;;;;22.20;44.80;;;;;;1595905;73;1379;-65
2023/04/30 10:02:52;;;;;;;;;;;22.10;44.70;;;;;;1597710;73;1925;-65
2023/04/30 10:04:55;;;;;;;;;;;22.10;43.30;;;;;;1598723;73;1258;-65
2023/04/30 10:06:58;;;;;;;;;;;21.90;44.80;;;;;;1597936;73;1383;-65
2023/04/30 10:09:00;;;;;;;;;;;22.00;44.70;;;;;;1588242;73;1361;-65
2023/04/30 10:11:03;;;;;;;;;;;21.90;44.30;;;;;;1597174;73;1441;-65
2023/04/30 10:13:05;;;;;;;;;;;22.00;44.90;;;;;;1561744;74;1375;-65
2023/04/30 10:15:11;;;;;;;;;;;22.00;44.70;;;;;;1541035;76;1471;-64
2023/04/30 10:17:14;;;;;;;;;;;22.00;44.20;;;;;;1519321;76;1392;-65
2023/04/30 10:19:26;;;;;;;;;;;21.90;44.30;;;;;;1521567;76;1353;-65
2023/04/30 10:21:28;;;;;;;;;;;21.90;44.40;;;;;;1541310;75;1938;-65
2023/04/30 10:23:30;;;;;;;;;;;21.80;43.90;;;;;;1547741;75;1472;-65
2023/04/30 10:25:31;;;;;;;;;;;21.90;44.60;;;;;;1547848;75;1400;-66
2023/04/30 10:27:33;;;;;;;;;;;21.90;44.50;;;;;;1540955;75;1378;-65
2023/04/30 10:29:35;;;;;;;;;;;21.90;44.40;;;;;;1543342;75;1365;-65
2023/04/30 10:31:37;;;;;;;;;;;22.00;44.50;;;;;;1539077;75;1399;-64
2023/04/30 10:33:48;;;;;;;;;;;21.80;43.90;;;;;;1538117;75;1123;-64
2023/04/30 10:35:54;;;;;;;;;;;21.90;44.60;;;;;;1540927;75;1600;-64
2023/04/30 10:38:00;;;;;;;;;;;21.90;44.40;;;;;;1531545;75;1382;-65
2023/04/30 10:40:04;;;;;;;;;;;22.00;44.10;;;;;;1540088;75;1688;-65
2023/04/30 10:42:06;;;;;;;;;;;21.90;44.00;;;;;;1547707;75;1933;-65
2023/04/30 10:44:08;;;;;;;;;;;21.90;44.00;;;;;;1539068;75;1411;-65
2023/04/30 10:46:09;;;;;;;;;;;21.90;43.70;;;;;;1550847;75;1354;-65
2023/04/30 10:48:11;;;;;;;;;;;21.80;43.60;;;;;;1546441;75;1278;-65
2023/04/30 10:50:13;;;;;;;;;;;21.80;44.00;;;;;;1512191;77;1385;-65
2023/04/30 10:52:16;;;;;;;;;;;21.80;43.60;;;;;;1544826;75;1370;-65
2023/04/30 10:54:19;;;;;;;;;;;21.80;44.00;;;;;;1522514;77;1414;-64
2023/04/30 10:56:30;;;;;;;;;;;21.80;44.00;;;;;;1547856;75;1784;-64
2023/04/30 10:58:36;;;;;;;;;;;21.80;43.20;;;;;;1540486;75;1335;-65
2023/04/30 11:00:38;;;;;;;;;;;21.80;43.50;;;;;;1548467;75;1385;-65
2023/04/30 11:02:42;;;;;;;;;;;21.80;43.80;;;;;;1535445;75;1951;-64
2023/04/30 11:05:03;;;;;;;;;;;21.70;43.80;;;;;;1543603;75;1387;-65
2023/04/30 11:07:08;;;;;;;;;;;21.80;43.90;;;;;;1488501;78;1600;-65
2023/04/30 11:09:10;;;;;;;;;;;21.80;43.90;;;;;;1468198;79;1375;-64
2023/04/30 11:11:13;;;;;;;;;;;21.70;43.50;;;;;;1493776;78;1387;-65
2023/04/30 11:13:15;;;;;;;;;;;21.80;43.90;;;;;;1501739;77;1394;-64
2023/04/30 11:15:18;;;;;;;;;;;21.80;43.40;;;;;;1542835;75;1371;-65
2023/04/30 11:17:23;;;;;;;;;;;21.70;42.60;;;;;;1533613;75;1359;-65
2023/04/30 11:19:26;;;;;;;;;;;21.60;43.80;;;;;;1557754;75;1372;-65
2023/04/30 11:21:27;;;;;;;;;;;21.60;43.70;;;;;;1536861;75;1416;-65
2023/04/30 11:23:29;;;;;;;;;;;21.60;43.90;;;;;;1539725;75;1944;-65
2023/04/30 11:25:33;;;;;;;;;;;21.60;42.90;;;;;;1504303;77;1381;-65
2023/04/30 11:27:35;;;;;;;;;;;21.60;44.00;;;;;;1545463;75;1705;-65
2023/04/30 11:29:37;;;;;;;;;;;21.60;43.90;;;;;;1537939;75;1400;-65
2023/04/30 11:31:39;;;;;;;;;;;21.60;44.10;;;;;;1553756;75;1370;-65
2023/04/30 11:33:41;;;;;;;;;;;21.70;43.90;;;;;;1549177;75;1385;-65
2023/04/30 11:35:43;;;;;;;;;;;21.70;43.80;;;;;;1544367;75;1215;-65
2023/04/30 11:37:45;;;;;;;;;;;21.70;43.70;;;;;;1533590;75;1380;-65
2023/04/30 11:39:47;;;;;;;;;;;21.70;43.90;;;;;;1545745;75;1388;-64
2023/04/30 11:41:49;;;;;;;;;;;21.70;43.60;;;;;;1543808;75;1367;-65
2023/04/30 11:43:51;;;;;;;;;;;21.60;43.20;;;;;;1548789;75;1943;-65
2023/04/30 11:46:00;;;;;;;;;;;21.60;43.80;;;;;;1539040;75;1384;-65
2023/04/30 11:48:02;;;;;;;;;;;21.60;43.40;;;;;;1534323;75;1355;-65
2023/04/30 11:50:04;;;;;;;;;;;21.50;43.50;;;;;;1542998;75;1373;-65
2023/04/30 11:52:08;;;;;;;;;;;21.50;43.10;;;;;;1535069;75;1375;-66
2023/04/30 11:54:10;;;;;;;;;;;21.40;43.60;;;;;;1543195;75;1372;-65
2023/04/30 11:56:12;;;;;;;;;;;21.40;43.40;;;;;;1506933;77;1417;-64
2023/04/30 11:58:13;;;;;;;;;;;21.50;43.70;;;;;;1536035;75;1137;-66
2023/04/30 12:00:16;;;;;;;;;;;21.50;43.60;;;;;;1543117;75;1102;-66
2023/04/30 12:02:18;;;;;;;;;;;21.60;44.60;;;;;;1542692;75;1948;-66
2023/04/30 12:04:20;;;;;;;;;;;21.50;46.40;;;;;;1544139;75;1369;-64
2023/04/30 12:06:22;;;;;;;;;;;21.60;47.40;;;;;;1536337;75;1381;-65
2023/04/30 12:08:25;;;;;;;;;;;21.60;48.20;;;;;;1540675;75;1406;-66